Time;durP1;ratioP1;P1;durP2;ratioP2;P2;SDS_P1;SDS_P2;PMS_P1;PMS_P2;Temp;Humidity;BMP_temperature;BMP_pressure;BME280_temperature;BME280_humidity;BME280_pressure;Samples;Min_cycle;Max_cycle;Signal;HPM_P1;HPM_P2
2024/04/18 00:00:08;;;;;;;4.43;3.40;;;5.30;59.30;;;;;;5328325;26;20688;-65
2024/04/18 00:02:33;;;;;;;4.60;3.53;;;5.30;59.30;;;;;;5319370;26;20351;-65
2024/04/18 00:05:01;;;;;;;3.70;3.40;;;5.20;59.20;;;;;;5301827;26;20261;-65
2024/04/18 00:07:27;;;;;;;4.87;4.23;;;5.20;59.20;;;;;;5295236;26;20360;-65
2024/04/18 00:09:55;;;;;;;3.87;3.57;;;5.20;59.80;;;;;;5326015;26;20250;-65
2024/04/18 00:12:21;;;;;;;4.77;4.27;;;5.20;59.20;;;;;;5330601;26;20285;-65
2024/04/18 00:14:49;;;;;;;3.60;3.30;;;5.30;59.20;;;;;;5330845;26;20706;-65
2024/04/18 00:17:14;;;;;;;3.90;3.60;;;5.20;59.20;;;;;;5303129;26;20241;-65
2024/04/18 00:19:43;;;;;;;4.10;3.70;;;5.30;59.30;;;;;;5332159;26;20348;-65
2024/04/18 00:22:08;;;;;;;4.07;3.63;;;5.30;58.60;;;;;;5320321;26;20374;-65
2024/04/18 00:24:36;;;;;;;3.97;3.67;;;5.40;58.30;;;;;;5314548;26;20777;-65
2024/04/18 00:27:02;;;;;;;3.97;3.67;;;5.30;58.10;;;;;;5331099;26;20237;-65
2024/04/18 00:29:30;;;;;;;4.93;4.17;;;5.20;58.40;;;;;;5324752;26;20344;-65
2024/04/18 00:31:56;;;;;;;3.70;3.40;;;5.20;58.50;;;;;;5327205;26;20627;-64
2024/04/18 00:34:24;;;;;;;4.13;3.87;;;5.20;58.90;;;;;;5324658;26;20246;-65
2024/04/18 00:36:49;;;;;;;3.90;3.60;;;5.30;59.30;;;;;;5324315;26;20348;-65
2024/04/18 00:39:18;;;;;;;3.90;3.60;;;5.30;59.40;;;;;;5321809;26;20245;-64
2024/04/18 00:41:43;;;;;;;3.80;3.50;;;5.30;59.30;;;;;;5284892;26;20298;-65
2024/04/18 00:44:11;;;;;;;4.30;3.90;;;5.40;57.80;;;;;;5320206;26;20301;-64
2024/04/18 00:46:37;;;;;;;4.30;3.70;;;5.30;58.40;;;;;;5323696;26;20360;-65
2024/04/18 00:49:05;;;;;;;4.37;3.50;;;5.40;58.50;;;;;;5327877;26;20725;-65
2024/04/18 00:51:31;;;;;;;3.50;3.30;;;5.40;58.40;;;;;;5330426;26;20296;-64
2024/04/18 00:53:59;;;;;;;3.97;3.67;;;5.20;59.20;;;;;;5328208;26;20233;-65
2024/04/18 00:56:25;;;;;;;3.97;3.60;;;5.20;59.20;;;;;;5323286;26;20300;-65
2024/04/18 00:58:53;;;;;;;4.03;3.73;;;5.20;59.20;;;;;;5302251;26;20255;-64
2024/04/18 01:01:18;;;;;;;4.00;3.60;;;5.40;58.90;;;;;;5325605;26;20244;-65
2024/04/18 01:03:47;;;;;;;4.13;3.73;;;5.30;58.70;;;;;;5329807;26;20793;-65
2024/04/18 01:06:12;;;;;;;4.17;3.50;;;5.30;58.60;;;;;;5323619;26;20273;-65
2024/04/18 01:08:40;;;;;;;3.60;3.30;;;5.30;58.80;;;;;;5326493;26;20300;-65
2024/04/18 01:11:06;;;;;;;3.70;3.40;;;5.40;59.20;;;;;;5325351;26;20582;-65
2024/04/18 01:13:34;;;;;;;3.80;3.40;;;5.40;58.60;;;;;;5319911;26;20242;-65
2024/04/18 01:16:00;;;;;;;3.63;3.33;;;5.20;58.70;;;;;;5301089;26;20382;-65
2024/04/18 01:18:29;;;;;;;3.83;3.47;;;5.30;59.10;;;;;;5331302;26;20283;-65
2024/04/18 01:20:54;;;;;;;4.37;3.97;;;5.40;58.90;;;;;;5328170;26;20285;-65
2024/04/18 01:23:22;;;;;;;4.30;4.00;;;5.30;59.20;;;;;;5323628;26;20842;-65
2024/04/18 01:25:48;;;;;;;3.90;3.60;;;5.40;59.00;;;;;;5323604;26;20310;-65
2024/04/18 01:28:16;;;;;;;4.10;3.70;;;5.40;59.30;;;;;;5316039;26;20334;-65
2024/04/18 01:30:42;;;;;;;4.20;3.80;;;5.30;59.30;;;;;;5329194;26;20853;-65
2024/04/18 01:33:10;;;;;;;4.50;4.10;;;5.30;58.80;;;;;;5318205;26;20238;-65
2024/04/18 01:35:35;;;;;;;4.20;3.90;;;5.40;59.40;;;;;;5313103;26;20331;-65
2024/04/18 01:38:04;;;;;;;3.77;3.50;;;5.40;59.20;;;;;;5322970;26;20235;-65
2024/04/18 01:40:29;;;;;;;5.50;4.20;;;5.40;58.90;;;;;;5323345;26;20362;-65
2024/04/18 01:42:57;;;;;;;4.00;3.70;;;5.40;59.60;;;;;;5324925;26;20258;-65
2024/04/18 01:45:23;;;;;;;5.07;4.17;;;5.40;59.30;;;;;;5328923;26;20284;-64
2024/04/18 01:47:51;;;;;;;3.73;3.47;;;5.40;59.70;;;;;;5327720;26;20284;-65
2024/04/18 01:50:17;;;;;;;5.23;4.10;;;5.40;59.60;;;;;;5323187;26;20306;-64
2024/04/18 01:52:45;;;;;;;3.87;3.47;;;5.40;59.30;;;;;;5309921;26;20254;-65
2024/04/18 01:55:11;;;;;;;4.57;4.10;;;5.40;59.30;;;;;;5321377;26;20297;-65
2024/04/18 01:57:39;;;;;;;4.63;3.60;;;5.40;59.60;;;;;;5308986;26;20239;-65
2024/04/18 02:00:05;;;;;;;4.40;4.10;;;5.40;59.60;;;;;;5327238;26;20304;-65
2024/04/18 02:02:33;;;;;;;4.40;4.10;;;5.30;59.90;;;;;;5329959;26;20830;-65
2024/04/18 02:04:58;;;;;;;4.50;3.73;;;5.40;59.80;;;;;;5327584;26;20709;-65
2024/04/18 02:07:27;;;;;;;4.43;4.03;;;5.40;59.30;;;;;;5319360;26;20238;-65
2024/04/18 02:09:52;;;;;;;5.03;4.63;;;5.30;59.50;;;;;;5289705;26;20340;-65
2024/04/18 02:12:20;;;;;;;4.33;4.00;;;5.40;59.70;;;;;;5319066;26;20253;-65
2024/04/18 02:14:47;;;;;;;4.60;4.27;;;5.40;59.30;;;;;;5332187;26;20253;-65
2024/04/18 02:17:18;;;;;;;5.00;4.50;;;5.30;60.00;;;;;;5318004;26;20284;-65
2024/04/18 02:19:43;;;;;;;5.00;4.50;;;5.40;59.30;;;;;;5332134;26;20248;-65
2024/04/18 02:22:11;;;;;;;6.30;4.40;;;5.30;59.60;;;;;;5326781;26;20341;-65
2024/04/18 02:24:37;;;;;;;4.67;4.27;;;5.40;60.10;;;;;;5326216;26;20294;-65
2024/04/18 02:27:05;;;;;;;4.77;4.47;;;5.40;60.40;;;;;;5319470;26;20358;-65
2024/04/18 02:29:31;;;;;;;4.67;4.37;;;5.50;59.60;;;;;;5298798;26;20234;-65
2024/04/18 02:31:59;;;;;;;5.13;4.53;;;5.50;59.40;;;;;;5323611;26;20356;-65
2024/04/18 02:34:24;;;;;;;4.63;4.33;;;5.50;59.80;;;;;;5331857;26;20290;-65
2024/04/18 02:36:53;;;;;;;5.30;4.80;;;5.40;60.40;;;;;;5331555;26;20728;-64
2024/04/18 02:39:18;;;;;;;4.87;4.47;;;5.40;60.80;;;;;;5319028;26;20372;-65
2024/04/18 02:41:46;;;;;;;5.40;4.90;;;5.40;60.50;;;;;;5331986;26;20254;-65
2024/04/18 02:44:12;;;;;;;4.63;4.23;;;5.30;61.30;;;;;;5312193;26;20906;-65
2024/04/18 02:46:40;;;;;;;4.87;4.47;;;5.40;60.90;;;;;;5309052;26;20249;-65
2024/04/18 02:49:06;;;;;;;4.70;4.30;;;5.40;60.70;;;;;;5325595;26;20289;-65
2024/04/18 02:51:34;;;;;;;4.90;4.40;;;5.40;60.80;;;;;;5313130;26;20245;-65
2024/04/18 02:53:59;;;;;;;4.93;4.53;;;5.30;60.90;;;;;;5318335;26;20241;-65
2024/04/18 02:56:28;;;;;;;4.67;4.33;;;5.40;61.10;;;;;;5325213;26;20343;-65
2024/04/18 02:58:53;;;;;;;5.97;5.37;;;5.30;61.50;;;;;;5325823;26;20360;-65
2024/04/18 03:01:21;;;;;;;5.57;5.03;;;5.20;61.40;;;;;;5325750;26;20242;-65
2024/04/18 03:03:47;;;;;;;5.57;5.07;;;5.30;61.10;;;;;;5324484;26;20372;-65
2024/04/18 03:06:15;;;;;;;5.63;5.13;;;5.20;61.30;;;;;;5315100;26;20248;-65
2024/04/18 03:08:41;;;;;;;5.30;4.90;;;5.20;62.00;;;;;;5311889;26;20246;-65
2024/04/18 03:11:10;;;;;;;5.47;5.00;;;5.10;62.20;;;;;;5324404;26;20344;-64
2024/04/18 03:13:35;;;;;;;5.23;4.77;;;5.20;62.60;;;;;;5325337;26;20288;-65
2024/04/18 03:16:03;;;;;;;5.40;4.90;;;5.10;62.50;;;;;;5328216;26;20242;-65
2024/04/18 03:18:29;;;;;;;5.97;5.53;;;5.20;62.90;;;;;;5322140;26;20649;-65
2024/04/18 03:20:57;;;;;;;5.67;5.17;;;5.20;63.70;;;;;;5326650;26;20364;-64
2024/04/18 03:23:23;;;;;;;6.03;5.53;;;5.10;63.60;;;;;;5329665;26;20253;-65
2024/04/18 03:25:51;;;;;;;6.03;5.53;;;5.20;62.70;;;;;;5316168;26;20239;-65
2024/04/18 03:28:17;;;;;;;6.37;5.77;;;5.20;62.20;;;;;;5306091;26;20335;-65
2024/04/18 03:30:45;;;;;;;6.30;5.70;;;5.10;63.70;;;;;;5325285;26;20745;-65
2024/04/18 03:33:10;;;;;;;6.07;5.47;;;5.10;63.20;;;;;;5329844;26;20292;-65
2024/04/18 03:35:38;;;;;;;6.10;5.60;;;5.10;63.70;;;;;;5330931;26;20338;-65
2024/04/18 03:38:07;;;;;;;6.07;5.57;;;5.10;62.60;;;;;;5313015;26;20234;-65
2024/04/18 03:40:35;;;;;;;5.50;5.00;;;5.10;63.20;;;;;;5318976;26;20293;-65
2024/04/18 03:43:03;;;;;;;6.40;5.80;;;5.10;63.70;;;;;;5318487;26;20822;-65
2024/04/18 03:45:32;;;;;;;5.23;4.80;;;5.10;63.50;;;;;;5317068;26;20234;-65
2024/04/18 03:48:00;;;;;;;6.53;5.83;;;5.10;63.20;;;;;;5326428;26;20372;-65
2024/04/18 03:50:28;;;;;;;6.70;6.10;;;5.00;63.50;;;;;;5302201;27;20309;-65
2024/04/18 03:52:54;;;;;;;7.03;6.33;;;5.00;64.30;;;;;;5325983;26;20796;-65
2024/04/18 03:55:22;;;;;;;6.37;5.87;;;5.10;63.70;;;;;;5330978;26;20233;-65
2024/04/18 03:57:47;;;;;;;6.63;6.03;;;5.10;63.70;;;;;;5330412;26;20234;-65
2024/04/18 04:00:16;;;;;;;6.30;5.80;;;5.10;62.90;;;;;;5325285;26;20276;-65
2024/04/18 04:02:41;;;;;;;6.70;6.00;;;5.10;63.70;;;;;;5271112;27;20242;-65
2024/04/18 04:05:10;;;;;;;6.90;6.30;;;5.00;63.60;;;;;;5329459;26;20354;-65
2024/04/18 04:07:38;;;;;;;6.67;6.07;;;5.10;63.70;;;;;;5324378;26;20238;-64
2024/04/18 04:10:03;;;;;;;6.43;5.83;;;5.20;64.20;;;;;;5324463;26;20300;-65
2024/04/18 04:12:32;;;;;;;7.20;6.50;;;5.20;63.80;;;;;;5330632;26;20361;-65
2024/04/18 04:14:57;;;;;;;6.27;5.77;;;5.20;63.80;;;;;;5327986;26;20707;-65
2024/04/18 04:17:26;;;;;;;6.87;6.27;;;5.20;63.90;;;;;;5324878;26;20243;-65
2024/04/18 04:19:51;;;;;;;7.07;6.47;;;5.10;63.80;;;;;;5302036;26;20306;-65
2024/04/18 04:22:19;;;;;;;7.70;6.23;;;5.10;63.90;;;;;;5311322;26;20358;-65
2024/04/18 04:24:45;;;;;;;7.20;6.60;;;5.10;63.90;;;;;;5330494;26;20693;-65
2024/04/18 04:27:14;;;;;;;6.70;6.10;;;5.20;64.60;;;;;;5325019;26;20242;-65
2024/04/18 04:29:39;;;;;;;6.63;6.13;;;5.20;64.90;;;;;;5333142;26;20233;-64
2024/04/18 04:32:07;;;;;;;6.47;5.90;;;5.20;65.40;;;;;;5325826;26;20291;-65
2024/04/18 04:34:33;;;;;;;7.43;6.83;;;5.30;64.00;;;;;;5324005;26;20232;-65
2024/04/18 04:37:02;;;;;;;6.83;6.13;;;5.20;64.10;;;;;;5308527;26;20300;-65
2024/04/18 04:39:27;;;;;;;6.23;5.63;;;5.20;64.00;;;;;;5299045;26;20890;-65
2024/04/18 04:41:56;;;;;;;6.90;6.30;;;5.20;64.50;;;;;;5320458;26;20249;-65
2024/04/18 04:44:22;;;;;;;7.07;6.50;;;5.30;63.90;;;;;;5330092;26;20300;-65
2024/04/18 04:46:50;;;;;;;7.27;6.67;;;5.20;64.10;;;;;;5315836;26;20281;-65
2024/04/18 04:49:15;;;;;;;6.67;6.07;;;5.30;63.90;;;;;;5323635;26;20303;-65
2024/04/18 04:51:44;;;;;;;7.10;6.50;;;5.20;63.70;;;;;;5315543;26;20368;-65
2024/04/18 04:54:09;;;;;;;6.97;6.37;;;5.20;64.40;;;;;;5327535;26;20316;-65
2024/04/18 04:56:37;;;;;;;6.20;5.70;;;5.30;64.30;;;;;;5324317;26;20368;-65
2024/04/18 04:59:03;;;;;;;6.20;5.80;;;5.40;64.20;;;;;;5330163;26;20646;-65
2024/04/18 05:01:31;;;;;;;6.67;6.03;;;5.30;63.80;;;;;;5320912;26;20350;-65
2024/04/18 05:03:57;;;;;;;6.20;5.70;;;5.30;64.40;;;;;;5327717;26;20252;-65
2024/04/18 05:06:25;;;;;;;6.83;6.23;;;5.40;64.30;;;;;;5324002;26;20339;-65
2024/04/18 05:08:51;;;;;;;6.30;5.70;;;5.30;63.90;;;;;;5285666;26;20593;-65
2024/04/18 05:11:19;;;;;;;6.37;5.83;;;5.40;64.50;;;;;;5305762;26;20300;-65
2024/04/18 05:13:45;;;;;;;6.20;5.60;;;5.50;64.10;;;;;;5329125;26;20277;-64
2024/04/18 05:16:13;;;;;;;7.43;6.40;;;5.50;63.60;;;;;;5324362;26;20341;-65
2024/04/18 05:18:38;;;;;;;6.77;6.17;;;5.40;63.90;;;;;;5330648;26;20355;-65
2024/04/18 05:21:07;;;;;;;7.33;6.63;;;5.40;64.60;;;;;;5327228;26;20242;-64
2024/04/18 05:23:33;;;;;;;7.63;6.93;;;5.50;64.20;;;;;;5329597;26;20257;-65
2024/04/18 05:26:01;;;;;;;7.20;6.53;;;5.50;64.90;;;;;;5314347;26;20297;-64
2024/04/18 05:28:40;;;;;;;9.43;8.63;;;5.50;65.30;;;;;;5310498;26;20323;-65
2024/04/18 05:31:08;;;;;;;8.30;7.47;;;5.50;65.30;;;;;;5326015;26;20285;-65
2024/04/18 05:33:34;;;;;;;7.73;6.73;;;5.60;64.50;;;;;;5323099;26;20360;-65
2024/04/18 05:36:03;;;;;;;8.03;6.53;;;5.60;64.10;;;;;;5325381;26;20250;-65
2024/04/18 05:38:31;;;;;;;7.13;6.43;;;5.60;64.10;;;;;;5328144;26;20289;-66
2024/04/18 05:40:56;;;;;;;7.10;6.50;;;5.70;63.50;;;;;;5324507;26;20354;-65
2024/04/18 05:43:25;;;;;;;7.80;7.10;;;5.60;64.10;;;;;;5315204;26;20260;-65
2024/04/18 05:45:50;;;;;;;7.07;6.40;;;5.50;64.00;;;;;;5321075;26;20301;-65
2024/04/18 05:48:19;;;;;;;7.00;6.40;;;5.50;63.70;;;;;;5311541;26;20233;-65
2024/04/18 05:50:47;;;;;;;8.10;7.40;;;5.50;64.00;;;;;;5310413;26;20284;-65
2024/04/18 05:53:15;;;;;;;7.63;6.70;;;5.50;64.00;;;;;;5302239;26;20598;-65
2024/04/18 05:55:43;;;;;;;6.50;6.00;;;5.50;63.90;;;;;;5305180;26;20253;-65
2024/04/18 05:58:11;;;;;;;6.83;6.13;;;5.40;63.90;;;;;;5295079;26;20261;-65
2024/04/18 06:00:39;;;;;;;8.13;7.33;;;5.30;63.90;;;;;;5333640;26;20304;-65
2024/04/18 06:03:08;;;;;;;7.13;6.43;;;5.30;63.80;;;;;;5311367;26;20886;-65
2024/04/18 06:05:37;;;;;;;5.67;5.03;;;5.30;63.80;;;;;;5313966;26;21067;-65
2024/04/18 06:08:05;;;;;;;5.20;4.80;;;5.10;62.60;;;;;;5310521;26;20238;-65
2024/04/18 06:13:09;;;;;;;5.30;4.80;;;4.80;63.10;;;;;;5394482;21;20662;-65
2024/04/18 06:15:37;;;;;;;9.67;8.77;;;4.80;62.30;;;;;;5298436;26;20275;-65
2024/04/18 06:18:05;;;;;;;7.07;6.47;;;4.80;61.50;;;;;;5303933;26;20305;-65
2024/04/18 06:20:34;;;;;;;4.93;4.53;;;4.80;61.50;;;;;;5301394;26;20290;-65
2024/04/18 06:23:02;;;;;;;5.97;5.47;;;4.70;61.60;;;;;;5327565;26;20344;-65
2024/04/18 06:25:35;;;;;;;4.93;4.60;;;4.60;61.80;;;;;;5330865;26;20672;-65
2024/04/18 06:28:03;;;;;;;4.50;4.10;;;4.50;62.20;;;;;;5316509;26;20230;-65
2024/04/18 06:30:31;;;;;;;4.20;3.80;;;4.50;62.80;;;;;;5309358;26;20747;-65
2024/04/18 06:33:00;;;;;;;5.00;4.60;;;4.50;62.70;;;;;;5317894;26;20382;-65
2024/04/18 06:35:28;;;;;;;4.50;4.13;;;4.60;62.40;;;;;;5299305;26;20316;-65
2024/04/18 06:37:56;;;;;;;5.10;4.70;;;4.50;62.70;;;;;;5302621;26;20253;-64
2024/04/18 06:40:24;;;;;;;5.47;5.03;;;4.60;61.90;;;;;;5306834;26;20245;-65
2024/04/18 06:42:53;;;;;;;4.40;4.10;;;4.60;63.20;;;;;;5299557;26;20289;-66
2024/04/18 06:45:21;;;;;;;4.50;4.20;;;4.70;62.30;;;;;;5324980;26;20555;-65
2024/04/18 06:47:50;;;;;;;4.47;4.17;;;4.80;63.10;;;;;;5323995;26;20276;-66
2024/04/18 06:50:18;;;;;;;4.67;4.37;;;4.70;62.50;;;;;;5298262;26;20242;-66
2024/04/18 06:52:46;;;;;;;4.53;4.23;;;4.80;62.90;;;;;;5287748;26;20258;-66
2024/04/18 06:55:15;;;;;;;4.37;4.07;;;4.80;63.00;;;;;;5312193;26;20309;-66
2024/04/18 06:57:43;;;;;;;4.33;4.03;;;4.90;63.00;;;;;;5304137;26;20250;-66
2024/04/18 07:00:11;;;;;;;4.73;4.23;;;4.90;63.40;;;;;;5314880;26;20802;-65
2024/04/18 07:02:40;;;;;;;4.60;4.20;;;4.90;62.50;;;;;;5309844;26;20319;-66
2024/04/18 07:05:08;;;;;;;6.87;6.33;;;4.90;63.00;;;;;;5308278;26;20480;-66
2024/04/18 07:07:36;;;;;;;9.27;8.47;;;4.90;63.00;;;;;;5305460;26;20285;-65
2024/04/18 07:10:04;;;;;;;5.67;5.17;;;5.10;63.70;;;;;;5295098;26;20255;-66
2024/04/18 07:12:32;;;;;;;4.60;4.30;;;5.10;63.20;;;;;;5323467;26;20254;-66
2024/04/18 07:15:01;;;;;;;5.80;5.30;;;5.10;63.70;;;;;;5291235;26;20384;-66
2024/04/18 07:17:29;;;;;;;4.70;4.27;;;5.20;63.70;;;;;;5300071;26;20346;-66
2024/04/18 07:19:57;;;;;;;4.90;4.50;;;5.10;63.00;;;;;;5307735;26;20777;-65
2024/04/18 07:22:25;;;;;;;4.27;3.93;;;5.20;63.70;;;;;;5303341;26;20663;-66
2024/04/18 07:24:54;;;;;;;5.07;4.67;;;5.30;63.80;;;;;;5295222;26;20246;-66
2024/04/18 07:27:22;;;;;;;5.00;4.60;;;5.40;62.80;;;;;;5289979;26;20299;-66
2024/04/18 07:29:50;;;;;;;4.60;4.23;;;5.50;62.60;;;;;;5301188;26;20250;-65
2024/04/18 07:32:18;;;;;;;5.20;4.80;;;5.60;63.60;;;;;;5300843;26;20264;-66
2024/04/18 07:34:47;;;;;;;5.00;4.60;;;5.60;62.90;;;;;;5318864;26;20285;-65
2024/04/18 07:37:15;;;;;;;5.43;5.00;;;5.60;62.20;;;;;;5285734;26;20364;-67
2024/04/18 07:39:43;;;;;;;5.27;4.80;;;5.70;63.70;;;;;;5300646;26;20349;-66
2024/04/18 07:42:15;;;;;;;5.23;4.83;;;5.80;62.90;;;;;;5313533;26;20266;-65
2024/04/18 07:44:43;;;;;;;6.03;5.50;;;5.90;63.80;;;;;;5323416;26;20242;-65
2024/04/18 07:47:12;;;;;;;6.03;5.53;;;5.90;62.40;;;;;;5326131;26;20243;-66
2024/04/18 07:49:40;;;;;;;5.60;5.17;;;5.70;62.40;;;;;;5323524;26;20290;-67
2024/04/18 07:52:05;;;;;;;5.90;5.40;;;5.70;63.30;;;;;;5307285;26;20820;-66
2024/04/18 07:54:35;;;;;;;5.90;5.37;;;5.90;63.30;;;;;;5314620;26;20252;-66
2024/04/18 07:57:03;;;;;;;6.07;5.57;;;5.90;63.40;;;;;;5330884;26;20235;-66
2024/04/18 07:59:31;;;;;;;6.37;5.87;;;5.90;63.30;;;;;;5282207;26;20668;-66
2024/04/18 08:02:00;;;;;;;6.43;5.83;;;6.00;63.40;;;;;;5254894;26;20246;-65
2024/04/18 08:04:28;;;;;;;5.73;5.23;;;6.00;63.00;;;;;;5293789;26;20307;-66
2024/04/18 08:06:56;;;;;;;5.93;5.43;;;6.00;63.20;;;;;;5310940;26;20282;-64
2024/04/18 08:09:24;;;;;;;6.27;5.77;;;6.20;63.70;;;;;;5299554;26;20257;-64
2024/04/18 08:11:52;;;;;;;6.83;6.23;;;6.30;64.00;;;;;;5282774;26;20350;-64
2024/04/18 08:14:21;;;;;;;6.77;6.13;;;6.40;64.80;;;;;;5317804;26;20747;-63
2024/04/18 08:16:49;;;;;;;7.33;6.63;;;6.50;63.90;;;;;;5289371;26;20245;-64
2024/04/18 08:19:17;;;;;;;7.27;6.53;;;6.60;63.10;;;;;;5299371;26;20376;-64
2024/04/18 08:21:45;;;;;;;7.50;6.80;;;6.80;63.20;;;;;;5309386;26;20419;-64
2024/04/18 08:24:21;;;;;;;9.57;8.30;;;6.90;62.30;;;;;;5319418;26;20259;-65
2024/04/18 08:26:50;;;;;;;8.00;7.30;;;7.00;61.30;;;;;;5297222;26;20253;-64
2024/04/18 08:29:22;;;;;;;6.53;6.03;;;7.00;60.30;;;;;;5298084;26;20761;-64
2024/04/18 08:31:50;;;;;;;8.17;6.10;;;7.00;61.70;;;;;;5317890;26;20256;-64
2024/04/18 08:34:18;;;;;;;6.03;5.53;;;7.10;62.50;;;;;;5301860;26;20718;-64
2024/04/18 08:36:47;;;;;;;6.50;5.90;;;7.20;60.90;;;;;;5308816;26;20248;-64
2024/04/18 08:39:15;;;;;;;5.90;5.40;;;7.00;61.50;;;;;;5317329;26;20307;-64
2024/04/18 08:41:43;;;;;;;5.33;4.83;;;7.00;61.40;;;;;;5319509;26;20308;-64
2024/04/18 08:44:12;;;;;;;5.80;5.30;;;7.00;59.70;;;;;;5308520;26;20260;-64
2024/04/18 08:46:40;;;;;;;5.93;5.50;;;7.20;60.00;;;;;;5299993;26;20844;-64
2024/04/18 08:49:10;;;;;;;6.33;5.83;;;7.30;59.60;;;;;;5328310;26;20304;-64
2024/04/18 08:51:38;;;;;;;6.53;5.93;;;7.50;59.50;;;;;;5316799;26;20881;-64
2024/04/18 08:54:03;;;;;;;5.60;5.10;;;7.60;61.10;;;;;;5302155;26;20244;-64
2024/04/18 08:56:31;;;;;;;6.07;5.57;;;7.70;59.90;;;;;;5307449;26;20413;-64
2024/04/18 08:59:00;;;;;;;5.47;4.93;;;7.90;59.80;;;;;;5327016;26;20362;-65
2024/04/18 09:01:28;;;;;;;5.33;4.93;;;8.10;59.20;;;;;;5299056;26;20273;-64
2024/04/18 09:03:56;;;;;;;5.40;5.00;;;8.10;59.20;;;;;;5301116;26;20646;-64
2024/04/18 09:06:24;;;;;;;5.17;4.77;;;8.30;57.40;;;;;;5309655;26;20293;-65
2024/04/18 09:08:53;;;;;;;5.00;4.50;;;9.30;54.40;;;;;;5299453;26;20366;-64
2024/04/18 09:11:21;;;;;;;4.20;3.80;;;9.30;54.90;;;;;;5324146;26;20246;-64
2024/04/18 09:13:49;;;;;;;4.53;4.13;;;8.90;55.20;;;;;;5315289;26;20372;-64
2024/04/18 09:16:17;;;;;;;5.07;4.67;;;8.50;54.00;;;;;;5296942;26;20244;-64
2024/04/18 09:18:46;;;;;;;4.90;4.47;;;8.30;55.70;;;;;;5307486;26;20336;-64
2024/04/18 09:21:14;;;;;;;4.67;4.37;;;8.30;56.40;;;;;;5298121;26;20342;-65
2024/04/18 09:23:42;;;;;;;6.10;5.20;;;8.30;57.40;;;;;;5303623;26;20378;-65
2024/04/18 09:26:10;;;;;;;4.97;4.57;;;8.40;56.30;;;;;;5281773;26;20700;-64
2024/04/18 09:28:38;;;;;;;5.13;4.73;;;9.00;55.90;;;;;;5274608;26;20263;-65
2024/04/18 09:31:06;;;;;;;5.10;4.60;;;9.40;53.30;;;;;;5273983;26;20367;-66
2024/04/18 09:33:35;;;;;;;4.40;4.10;;;9.40;53.90;;;;;;5278325;26;20265;-65
2024/04/18 09:36:03;;;;;;;4.00;3.70;;;9.50;52.60;;;;;;5274211;26;20363;-65
2024/04/18 09:38:31;;;;;;;4.30;4.00;;;9.80;51.50;;;;;;5282789;26;20241;-65
2024/04/18 09:41:00;;;;;;;4.40;4.00;;;10.30;50.60;;;;;;5276866;26;20737;-65
2024/04/18 09:43:28;;;;;;;4.40;4.10;;;10.20;48.30;;;;;;5270315;26;20272;-65
2024/04/18 09:45:56;;;;;;;4.17;3.87;;;10.40;48.10;;;;;;5276586;26;20719;-65
2024/04/18 09:48:24;;;;;;;4.80;4.40;;;10.60;47.20;;;;;;5267795;26;20980;-64
2024/04/18 09:50:52;;;;;;;4.23;3.93;;;10.30;48.70;;;;;;5255575;27;20355;-65
2024/04/18 09:53:21;;;;;;;4.37;4.00;;;9.50;48.70;;;;;;5247006;27;20253;-65
2024/04/18 09:55:49;;;;;;;4.10;3.80;;;8.90;50.70;;;;;;5279120;27;20307;-65
2024/04/18 09:58:17;;;;;;;3.97;3.67;;;8.40;52.30;;;;;;5277762;27;20300;-65
2024/04/18 10:00:45;;;;;;;4.03;3.67;;;8.50;53.20;;;;;;5273010;27;20249;-65
2024/04/18 10:03:11;;;;;;;4.83;4.43;;;8.60;50.80;;;;;;5274104;27;20307;-64
2024/04/18 10:05:39;;;;;;;4.53;4.13;;;8.10;52.40;;;;;;5271723;27;20788;-65
2024/04/18 10:08:07;;;;;;;5.17;4.50;;;7.50;53.80;;;;;;5273475;27;20242;-64
2024/04/18 10:10:36;;;;;;;4.77;4.37;;;7.60;56.40;;;;;;5278784;27;20736;-66
2024/04/18 10:13:04;;;;;;;5.00;4.60;;;7.60;57.60;;;;;;5277517;27;20288;-65
2024/04/18 10:15:32;;;;;;;5.20;4.70;;;7.60;57.90;;;;;;5287938;27;20250;-64
2024/04/18 10:18:00;;;;;;;5.20;4.80;;;7.60;57.10;;;;;;5280633;27;20273;-64
2024/04/18 10:20:29;;;;;;;4.83;4.43;;;7.30;56.60;;;;;;5270636;27;20358;-66
2024/04/18 10:22:57;;;;;;;5.90;5.40;;;7.20;58.10;;;;;;5302004;27;20936;-65
2024/04/18 10:25:25;;;;;;;5.83;5.33;;;7.30;58.90;;;;;;5299881;27;20319;-65
2024/04/18 10:27:53;;;;;;;4.97;4.57;;;7.40;59.30;;;;;;5298585;27;20703;-65
2024/04/18 10:30:21;;;;;;;5.43;4.77;;;7.30;56.20;;;;;;5305317;27;20325;-65
2024/04/18 10:32:52;;;;;;;5.13;4.67;;;7.40;56.70;;;;;;5298672;27;20249;-65
2024/04/18 10:35:20;;;;;;;4.97;4.60;;;7.60;56.90;;;;;;5296881;27;20242;-65
2024/04/18 10:37:49;;;;;;;7.87;5.00;;;7.90;57.10;;;;;;5300299;27;20284;-65
2024/04/18 10:40:18;;;;;;;4.90;4.50;;;8.10;56.60;;;;;;5303174;27;20298;-65
2024/04/18 10:42:43;;;;;;;4.47;4.17;;;8.30;55.10;;;;;;5309118;27;20321;-65
2024/04/18 10:45:11;;;;;;;4.23;3.83;;;8.40;53.10;;;;;;5306169;27;20380;-64
2024/04/18 10:47:40;;;;;;;4.80;4.40;;;8.50;53.20;;;;;;5296862;27;20246;-65
2024/04/18 10:50:08;;;;;;;5.17;4.60;;;8.60;51.40;;;;;;5290224;26;20354;-65
2024/04/18 10:52:36;;;;;;;6.00;4.87;;;8.90;52.60;;;;;;5299537;27;20254;-65
2024/04/18 10:55:04;;;;;;;4.40;4.10;;;9.20;54.10;;;;;;5309586;27;20834;-65
2024/04/18 10:57:33;;;;;;;5.37;4.47;;;9.30;51.60;;;;;;5299622;27;20627;-65
2024/04/18 11:00:01;;;;;;;4.77;4.37;;;9.70;53.70;;;;;;5302944;27;20740;-65
2024/04/18 11:02:29;;;;;;;4.03;3.73;;;10.10;51.50;;;;;;5301225;27;20367;-64
2024/04/18 11:04:58;;;;;;;7.10;6.40;;;10.30;50.70;;;;;;5293765;27;20280;-65
2024/04/18 11:07:26;;;;;;;6.77;6.17;;;10.60;48.60;;;;;;5303980;27;20302;-65
2024/04/18 11:09:54;;;;;;;5.43;4.93;;;10.90;47.60;;;;;;5299432;27;20257;-65
2024/04/18 11:12:22;;;;;;;5.97;4.50;;;11.00;46.40;;;;;;5310708;27;20263;-66
2024/04/18 11:14:52;;;;;;;4.77;4.37;;;11.50;45.80;;;;;;5308641;27;20287;-66
2024/04/18 11:17:20;;;;;;;5.40;4.90;;;12.10;45.30;;;;;;5286519;27;20753;-65
2024/04/18 11:19:49;;;;;;;9.93;8.93;;;12.90;43.50;;;;;;5300001;27;20253;-66
2024/04/18 11:22:17;;;;;;;5.13;4.63;;;13.70;37.90;;;;;;5296272;27;20267;-65
2024/04/18 11:24:45;;;;;;;4.37;3.97;;;13.80;40.00;;;;;;5300910;27;20716;-65
2024/04/18 11:27:13;;;;;;;3.53;3.23;;;13.70;38.50;;;;;;5303160;27;20307;-66
2024/04/18 11:29:46;;;;;;;2.80;2.60;;;14.10;38.10;;;;;;5304603;27;20370;-65
2024/04/18 11:32:15;;;;;;;3.20;2.90;;;14.00;33.70;;;;;;5280596;27;20280;-66
2024/04/18 11:34:43;;;;;;;3.13;2.90;;;14.90;36.40;;;;;;5278688;27;20247;-66
2024/04/18 11:37:11;;;;;;;2.95;2.70;;;16.30;31.20;;;;;;5260173;27;20255;-66
2024/04/18 11:39:40;;;;;;;2.78;2.17;;;18.50;29.20;;;;;;5279766;27;20243;-66
2024/04/18 11:42:08;;;;;;;3.20;2.90;;;16.80;31.40;;;;;;5257679;27;20264;-66
2024/04/18 11:44:36;;;;;;;2.90;2.70;;;13.80;35.20;;;;;;5263365;27;20633;-66
2024/04/18 11:47:04;;;;;;;3.77;3.47;;;13.40;37.40;;;;;;5275312;27;20284;-66
2024/04/18 11:49:33;;;;;;;3.57;3.27;;;12.00;41.30;;;;;;5272084;27;20250;-66
2024/04/18 11:52:01;;;;;;;3.60;3.33;;;11.90;43.40;;;;;;5288441;27;20367;-66
2024/04/18 11:54:31;;;;;;;3.80;3.40;;;15.60;36.70;;;;;;5262898;27;20357;-66
2024/04/18 11:57:00;;;;;;;3.40;3.10;;;19.60;29.50;;;;;;5288415;27;20305;-66
2024/04/18 11:59:28;;;;;;;3.70;3.40;;;19.40;29.40;;;;;;5284520;27;20287;-67
2024/04/18 12:01:56;;;;;;;3.63;2.92;;;21.40;26.40;;;;;;5277683;27;20306;-65
2024/04/18 12:04:24;;;;;;;3.67;3.38;;;21.80;25.30;;;;;;5274279;27;20299;-65
2024/04/18 12:06:53;;;;;;;3.13;2.93;;;18.80;27.10;;;;;;5285709;27;20382;-66
2024/04/18 12:09:21;;;;;;;2.57;2.37;;;16.70;30.60;;;;;;5231752;27;20243;-66
2024/04/18 12:11:49;;;;;;;3.13;2.83;;;15.10;31.10;;;;;;5289558;27;20399;-66
2024/04/18 12:14:18;;;;;;;3.03;2.83;;;13.80;34.60;;;;;;5258625;27;20386;-67
2024/04/18 12:16:46;;;;;;;3.73;3.40;;;13.30;33.00;;;;;;5271279;27;20704;-66
2024/04/18 12:19:14;;;;;;;4.17;3.50;;;12.10;38.10;;;;;;5256807;27;20249;-66
2024/04/18 12:21:42;;;;;;;4.60;4.20;;;11.50;40.80;;;;;;5276044;27;20334;-66
2024/04/18 12:24:10;;;;;;;4.67;4.27;;;11.40;42.90;;;;;;5285146;27;20349;-66
2024/04/18 12:26:39;;;;;;;4.60;4.20;;;10.70;45.10;;;;;;5269553;27;20251;-66
2024/04/18 12:29:07;;;;;;;4.00;3.70;;;10.70;45.10;;;;;;5267352;27;20254;-66
2024/04/18 12:31:36;;;;;;;3.80;3.50;;;11.20;44.80;;;;;;5274819;27;20589;-66
2024/04/18 12:34:04;;;;;;;4.30;3.93;;;11.60;43.80;;;;;;5261564;27;20248;-67
2024/04/18 12:36:32;;;;;;;4.13;3.83;;;11.50;43.00;;;;;;5260479;27;20608;-67
2024/04/18 12:39:00;;;;;;;4.13;3.83;;;11.10;43.80;;;;;;5273560;27;20293;-67
2024/04/18 12:41:26;;;;;;;4.53;4.13;;;10.70;45.10;;;;;;5282815;27;20338;-66
2024/04/18 12:43:54;;;;;;;4.80;4.40;;;10.40;46.10;;;;;;5275327;27;20331;-67
2024/04/18 12:46:19;;;;;;;5.27;4.70;;;10.20;45.90;;;;;;5284303;27;20674;-67
2024/04/18 12:48:48;;;;;;;5.03;4.53;;;10.00;45.90;;;;;;5281878;27;20241;-67
2024/04/18 12:51:16;;;;;;;3.77;3.43;;;9.80;46.90;;;;;;5267948;27;20246;-67
2024/04/18 12:53:44;;;;;;;5.87;3.20;;;9.60;46.40;;;;;;5275993;27;20316;-67
2024/04/18 12:56:12;;;;;;;4.10;3.70;;;9.50;47.10;;;;;;5284341;27;20383;-65
2024/04/18 12:58:41;;;;;;;4.53;4.07;;;9.60;47.20;;;;;;5288743;27;20245;-66